Time;durP1;ratioP1;P1;durP2;ratioP2;P2;SDS_P1;SDS_P2;PMS_P1;PMS_P2;Temp;Humidity;BMP_temperature;BMP_pressure;BME280_temperature;BME280_humidity;BME280_pressure;Samples;Min_cycle;Max_cycle;Signal;HPM_P1;HPM_P2
2022/08/26 00:07:46;;;;;;;23.80;10.10;;;;;;;18.53;78.69;98554.73;432052;1273;97513;-40
2022/08/26 00:17:55;;;;;;;16.90;9.00;;;;;;;18.62;78.67;98548.41;432045;1273;108240;-41
2022/08/26 00:28:03;;;;;;;18.60;10.90;;;;;;;18.58;78.64;98546.32;432224;1273;97903;-40
2022/08/26 00:38:08;;;;;;;17.00;8.70;;;;;;;18.54;78.77;98541.70;432111;1273;109937;-41
2022/08/26 00:48:19;;;;;;;18.60;9.70;;;;;;;18.33;78.68;98540.56;432078;1273;109013;-41
2022/08/26 00:58:29;;;;;;;18.80;9.60;;;;;;;18.15;78.70;98542.60;432185;1273;97600;-40
2022/08/26 01:08:35;;;;;;;15.40;9.50;;;;;;;18.01;78.93;98553.42;432940;1261;108067;-39
2022/08/26 01:18:45;;;;;;;26.60;10.80;;;;;;;18.06;79.37;98554.61;430639;1274;97820;-40
2022/08/26 01:28:57;;;;;;;21.50;9.90;;;;;;;17.97;79.22;98556.86;430796;1274;111173;-40
2022/08/26 01:39:04;;;;;;;25.60;9.50;;;;;;;17.90;79.55;98554.45;430968;1274;109087;-41
2022/08/26 01:49:14;;;;;;;17.20;9.40;;;;;;;17.80;79.53;98551.31;430959;1274;96668;-41
2022/08/26 01:59:23;;;;;;;17.80;10.30;;;;;;;17.51;79.37;98548.16;431046;1274;109400;-41
2022/08/26 02:09:31;;;;;;;18.30;10.70;;;;;;;17.40;79.65;98538.92;431176;1274;97501;-41
2022/08/26 02:19:45;;;;;;;21.70;11.20;;;;;;;17.44;79.96;98536.80;430796;1274;111156;-38
2022/08/26 02:29:56;;;;;;;16.60;9.80;;;;;;;17.49;80.10;98533.88;430543;1274;108811;-41
2022/08/26 02:40:06;;;;;;;16.70;8.90;;;;;;;17.44;80.10;98532.37;430823;1274;97563;-40
2022/08/26 02:50:14;;;;;;;20.50;9.60;;;;;;;17.30;80.05;98533.80;430849;1274;107632;-39
2022/08/26 03:00:21;;;;;;;14.70;9.40;;;;;;;17.26;80.12;98525.09;431087;1274;97507;-39
2022/08/26 03:10:31;;;;;;;21.10;9.90;;;;;;;17.14;80.34;98525.65;431063;1274;111280;-39
2022/08/26 03:20:38;;;;;;;24.20;9.70;;;;;;;16.90;80.16;98520.73;431011;1274;109114;-42
2022/08/26 03:30:48;;;;;;;18.20;9.60;;;;;;;16.80;80.47;98516.17;430814;1274;97259;-41
2022/08/26 03:40:55;;;;;;;;;;;;;;;16.71;80.46;98517.20;430913;1274;108922;-40
2022/08/26 03:51:02;;;;;;;15.20;8.60;;;;;;;16.70;80.71;98506.85;430948;1274;97043;-40
2022/08/26 04:01:10;;;;;;;21.30;10.20;;;;;;;16.68;80.91;98504.55;430648;1276;110152;-41
2022/08/26 04:11:20;;;;;;;20.40;9.70;;;;;;;16.87;80.79;98499.16;430834;1274;107742;-41
2022/08/26 04:21:28;;;;;;;21.60;9.20;;;;;;;17.04;81.00;98503.63;431033;1274;98675;-40
2022/08/26 04:31:35;;;;;;;15.40;8.60;;;;;;;17.20;80.80;98497.17;430928;1274;107877;-40
2022/08/26 04:41:43;;;;;;;18.60;10.20;;;;;;;17.27;80.49;98498.90;431467;1274;108836;-40
2022/08/26 04:51:51;;;;;;;20.00;9.90;;;;;;;17.25;80.34;98504.58;430921;1274;98609;-40
2022/08/26 05:02:00;;;;;;;46.80;21.80;;;;;;;17.65;80.48;98502.52;431107;1274;109047;-39
2022/08/26 05:12:05;;;;;;;20.20;10.60;;;;;;;18.93;80.92;98498.55;430935;1274;96711;-39
2022/08/26 05:22:12;;;;;;;44.60;12.20;;;;;;;20.30;80.61;98507.75;430807;1274;97913;-39
2022/08/26 05:32:21;;;;;;;24.00;9.10;;;;;;;21.38;79.62;98510.05;431252;1274;108516;-39
2022/08/26 05:42:28;;;;;;;23.10;9.00;;;;;;;22.47;78.74;98506.35;431062;1274;109315;-40
2022/08/26 05:52:36;;;;;;;16.40;6.90;;;;;;;23.25;76.91;98506.55;431216;1274;98275;-40
2022/08/26 06:02:44;;;;;;;10.90;5.80;;;;;;;23.66;74.03;98499.27;431028;1274;111732;-40
2022/08/26 06:12:54;;;;;;;7.70;5.30;;;;;;;23.95;72.10;98495.52;430638;1274;1857940;-40
2022/08/26 06:33:27;;;;;;;15.40;6.30;;;;;;;24.34;67.86;98502.95;430910;1274;111805;-39
2022/08/26 06:43:34;;;;;;;19.30;6.40;;;;;;;24.73;67.13;98510.59;430575;1276;108860;-42
2022/08/26 06:53:45;;;;;;;15.60;6.10;;;;;;;25.47;66.07;98504.10;431072;1274;97968;-40
2022/08/26 07:03:56;;;;;;;18.10;5.80;;;;;;;25.58;64.74;98506.08;431091;1274;98063;-40
2022/08/26 07:14:03;;;;;;;11.90;6.90;;;;;;;25.79;63.26;98505.52;430724;1274;111097;-41
2022/08/26 07:24:11;;;;;;;22.00;5.90;;;;;;;25.52;60.49;98508.80;431096;1274;109190;-40
2022/08/26 07:34:19;;;;;;;10.50;5.90;;;;;;;25.77;60.35;98514.36;430952;1274;97541;-41
2022/08/26 07:44:27;;;;;;;11.90;6.20;;;;;;;26.16;59.44;98518.91;430861;1274;97936;-40
2022/08/26 07:54:35;;;;;;;17.60;5.90;;;;;;;26.01;57.24;98516.14;431918;1274;110204;-42
2022/08/26 08:04:42;;;;;;;19.60;6.40;;;;;;;26.42;57.54;98519.20;430699;1276;109002;-40
2022/08/26 08:14:51;;;;;;;10.30;5.20;;;;;;;26.96;56.75;98514.36;431030;1276;97555;-40
2022/08/26 08:24:57;;;;;;;15.60;5.60;;;;;;;27.03;55.38;98510.73;430674;1275;110198;-41
2022/08/26 08:35:07;;;;;;;14.70;4.40;;;;;;;27.39;54.98;98504.45;430786;1276;108696;-41
2022/08/26 08:45:15;;;;;;;18.70;5.20;;;;;;;27.45;52.68;98499.12;430927;1276;97489;-40
2022/08/26 08:55:26;;;;;;;25.60;4.60;;;;;;;27.75;52.98;98498.05;430653;1276;97515;-41
2022/08/26 09:05:38;;;;;;;19.30;6.70;;;;;;;27.90;51.78;98491.23;430470;1276;110949;-42
2022/08/26 09:15:48;;;;;;;32.50;7.30;;;;;;;27.84;49.64;98492.23;430679;1276;108960;-39
2022/08/26 09:25:55;;;;;;;26.20;5.60;;;;;;;27.93;49.61;98485.11;430768;1276;97904;-42
2022/08/26 09:36:25;;;;;;;29.50;4.90;;;;;;;27.99;49.56;98484.89;430688;1276;97529;-41
2022/08/26 09:46:33;;;;;;;26.30;5.70;;;;;;;28.21;48.75;98482.67;430669;1276;111152;-42
2022/08/26 09:56:40;;;;;;;15.90;4.70;;;;;;;28.31;48.01;98479.04;430636;1276;108910;-40
2022/08/26 10:07:01;;;;;;;17.10;4.90;;;;;;;28.18;47.98;98474.58;430648;1276;97259;-41
2022/08/26 10:17:14;;;;;;;16.10;4.50;;;;;;;28.30;47.96;98471.50;430561;1276;97929;-40
2022/08/26 10:27:19;;;;;;;14.80;4.60;;;;;;;28.30;47.37;98467.14;430490;1276;110591;-40
2022/08/26 10:37:36;;;;;;;11.60;3.30;;;;;;;28.50;47.06;98459.64;431098;1275;108819;-40
2022/08/26 10:47:49;;;;;;;10.20;3.20;;;;;;;28.70;45.81;98452.57;430603;1276;109104;-40
2022/08/26 10:57:55;;;;;;;15.40;3.40;;;;;;;28.68;43.84;98452.59;430454;1276;97910;-41
2022/08/26 11:08:33;;;;;;;15.40;3.40;;;;;;;28.89;44.77;98446.34;430689;1276;98222;-41
2022/08/26 11:18:44;;;;;;;12.60;3.40;;;;;;;29.00;43.89;98431.50;430825;1276;109008;-41
2022/08/26 11:28:52;;;;;;;16.90;3.60;;;;;;;29.03;43.28;98416.70;430642;1275;107872;-39
2022/08/26 11:39:02;;;;;;;15.30;3.60;;;;;;;29.00;41.89;98404.84;430782;1276;97506;-40
2022/08/26 11:49:13;;;;;;;9.50;3.10;;;;;;;29.06;41.75;98393.13;431141;1276;111115;-40
2022/08/26 11:59:37;;;;;;;13.60;3.60;;;;;;;29.45;42.88;98382.80;430785;1276;109017;-40
2022/08/26 12:09:51;;;;;;;20.60;3.20;;;;;;;29.59;41.22;98377.23;430516;1276;97990;-39
2022/08/26 12:19:58;;;;;;;17.10;3.00;;;;;;;29.60;37.32;98376.02;430725;1276;98154;-40
2022/08/26 12:30:11;;;;;;;13.50;3.50;;;;;;;29.68;37.25;98368.77;430890;1276;111121;-39
2022/08/26 12:40:34;;;;;;;4.70;1.80;;;;;;;29.70;35.82;98358.74;430880;1275;109685;-39
2022/08/26 12:50:49;;;;;;;7.80;2.40;;;;;;;29.62;35.66;98351.45;430579;1276;97915;-39
2022/08/26 13:00:55;;;;;;;21.40;3.90;;;;;;;29.66;35.91;98343.02;430747;1276;97773;-40
2022/08/26 13:11:04;;;;;;;7.70;2.30;;;;;;;29.62;36.74;98329.11;430608;1276;111378;-40
2022/08/26 13:21:17;;;;;;;6.70;2.60;;;;;;;29.59;35.27;98325.93;430851;1276;109005;-40
2022/08/26 13:31:27;;;;;;;8.50;3.20;;;;;;;29.52;35.48;98319.51;430636;1275;97914;-42
2022/08/26 13:41:35;;;;;;;7.90;2.70;;;;;;;29.43;34.69;98318.55;430885;1274;97480;-40
2022/08/26 13:51:42;;;;;;;13.40;3.10;;;;;;;29.38;34.66;98312.08;430835;1275;111425;-40
2022/08/26 14:01:49;;;;;;;11.10;3.50;;;;;;;29.38;34.43;98301.71;430666;1276;108903;-41
2022/08/26 14:11:56;;;;;;;8.70;3.00;;;;;;;29.27;34.08;98297.15;430740;1276;97876;-39
2022/08/26 14:22:03;;;;;;;8.20;3.30;;;;;;;29.21;34.37;98290.67;430568;1275;111041;-40
2022/08/26 14:32:21;;;;;;;9.80;3.50;;;;;;;29.20;34.49;98283.73;430648;1275;108870;-40
2022/08/26 14:42:31;;;;;;;9.50;3.90;;;;;;;29.21;34.93;98274.34;430852;1276;97905;-41
2022/08/26 15:03:00;;;;;;;12.40;3.00;;;;;;;29.15;36.25;98263.11;430742;1276;108993;-41
2022/08/26 15:13:08;;;;;;;8.80;3.30;;;;;;;29.14;37.04;98260.36;430767;1276;97868;-41
2022/08/26 15:23:16;;;;;;;9.90;3.30;;;;;;;29.05;37.19;98258.55;430659;1275;97909;-43
2022/08/26 15:33:24;;;;;;;8.90;3.80;;;;;;;28.97;37.55;98259.48;430663;1276;111049;-40
2022/08/26 15:43:28;;;;;;;;;;;;;;;28.89;37.48;98260.66;430606;1275;108382;-41
2022/08/26 15:53:36;;;;;;;7.90;3.30;;;;;;;28.72;37.87;98263.58;430929;1276;109010;-40
2022/08/26 16:03:45;;;;;;;5.10;3.70;;;;;;;28.57;38.39;98258.98;431150;1276;98406;-40
2022/08/26 16:13:53;;;;;;;6.60;4.10;;;;;;;28.43;38.40;98253.80;431060;1276;111187;-41
2022/08/26 16:24:02;;;;;;;11.30;4.80;;;;;;;28.23;38.55;98254.43;430970;1276;109206;-40
2022/08/26 16:34:10;;;;;;;9.00;4.60;;;;;;;27.99;39.22;98253.96;431168;1276;97928;-40
2022/08/26 16:44:18;;;;;;;9.00;4.00;;;;;;;27.73;39.77;98249.23;430712;1276;110367;-40
2022/08/26 16:54:23;;;;;;;8.00;4.40;;;;;;;27.42;40.62;98238.04;431040;1275;108841;-40
2022/08/26 17:04:31;;;;;;;12.10;4.50;;;;;;;27.10;41.68;98229.61;430645;1276;97913;-41
2022/08/26 17:14:40;;;;;;;10.20;4.20;;;;;;;26.65;42.91;98226.91;430952;1275;110957;-40
2022/08/26 17:24:47;;;;;;;10.40;5.10;;;;;;;26.08;44.63;98221.75;431161;1276;108881;-40
2022/08/26 17:34:55;;;;;;;8.10;4.20;;;;;;;25.42;45.91;98223.43;430536;1276;109004;-38
2022/08/26 17:45:02;;;;;;;18.50;5.20;;;;;;;24.71;47.12;98219.33;430821;1276;97504;-38
2022/08/26 17:55:13;;;;;;;9.00;5.30;;;;;;;24.11;48.77;98216.48;430672;1275;110802;-41
2022/08/26 18:05:22;;;;;;;7.00;4.50;;;;;;;23.74;49.58;98211.85;430993;1275;108057;-40
2022/08/26 18:15:27;;;;;;;;;;;;;;;23.56;50.14;98208.02;429203;1276;2035796;-41
2022/08/26 18:25:34;;;;;;;8.90;5.70;;;;;;;23.33;50.84;98204.29;430777;1276;110366;-42
2022/08/26 18:35:41;;;;;;;12.60;6.30;;;;;;;23.14;51.16;98207.36;430595;1276;109054;-41
2022/08/26 18:45:49;;;;;;;17.70;7.30;;;;;;;22.83;52.13;98209.13;430849;1276;97903;-40
2022/08/26 18:55:56;;;;;;;16.80;11.10;;;;;;;22.45;53.08;98213.94;430853;1276;97482;-41
2022/08/26 19:06:05;;;;;;;16.60;9.10;;;;;;;22.09;54.04;98219.27;430648;1276;108997;-40
2022/08/26 19:16:14;;;;;;;16.00;8.20;;;;;;;21.73;55.09;98207.55;430849;1276;98044;-42
2022/08/26 19:26:22;;;;;;;15.00;8.20;;;;;;;21.63;55.76;98214.66;430547;1276;97990;-40
2022/08/26 19:36:30;;;;;;;15.60;8.30;;;;;;;21.48;56.19;98220.30;430769;1276;111101;-40
2022/08/26 19:46:37;;;;;;;12.60;8.30;;;;;;;21.40;56.78;98227.77;430934;1275;108837;-40
2022/08/26 19:56:45;;;;;;;9.80;7.50;;;;;;;21.29;57.06;98235.66;431896;1276;97981;-40
2022/08/26 20:06:56;;;;;;;14.30;8.10;;;;;;;21.17;57.45;98249.16;430778;1276;111005;-41
2022/08/26 20:17:07;;;;;;;15.50;8.90;;;;;;;21.11;58.23;98254.54;430815;1276;108801;-40
2022/08/26 20:27:14;;;;;;;;;;;;;;;20.89;58.61;98261.20;430622;1276;97933;-40
2022/08/26 20:37:23;;;;;;;13.20;8.60;;;;;;;20.61;59.22;98269.01;430881;1276;111196;-40
2022/08/26 20:47:30;;;;;;;19.60;7.80;;;;;;;20.31;59.90;98278.60;430662;1276;108864;-42
2022/08/26 20:57:37;;;;;;;16.60;8.70;;;;;;;20.08;60.61;98281.28;430777;1276;98005;-42
2022/08/26 21:07:45;;;;;;;21.80;8.20;;;;;;;20.06;61.42;98279.92;430985;1276;111333;-40
2022/08/26 21:17:53;;;;;;;18.60;9.60;;;;;;;20.03;61.98;98273.14;430859;1276;108812;-41
2022/08/26 21:28:01;;;;;;;19.10;11.80;;;;;;;19.79;62.72;98270.76;431035;1276;97797;-43
2022/08/26 21:38:08;;;;;;;20.30;12.10;;;;;;;19.50;63.19;98258.15;430973;1276;110646;-42
2022/08/26 21:48:14;;;;;;;26.60;12.90;;;;;;;19.28;63.62;98257.29;430596;1276;108783;-41
2022/08/26 21:58:21;;;;;;;20.40;11.50;;;;;;;19.21;64.77;98257.60;430582;1276;97941;-41
2022/08/26 22:18:36;;;;;;;19.70;10.10;;;;;;;19.07;65.46;98257.77;430922;1276;96804;-41
2022/08/26 22:28:45;;;;;;;20.60;11.50;;;;;;;18.91;66.14;98246.23;431093;1276;111203;-41
2022/08/26 22:38:53;;;;;;;22.40;10.00;;;;;;;18.68;66.25;98243.88;430653;1276;109407;-40
2022/08/26 22:49:00;;;;;;;20.20;11.10;;;;;;;18.39;66.73;98241.70;430782;1278;97518;-41
2022/08/26 22:59:10;;;;;;;21.30;10.10;;;;;;;18.30;67.06;98225.14;430821;1276;111117;-41
2022/08/26 23:09:19;;;;;;;17.70;11.10;;;;;;;18.21;67.67;98215.20;430865;1276;109015;-40
2022/08/26 23:19:27;;;;;;;12.50;9.70;;;;;;;18.14;67.85;98210.42;431129;1276;99531;-40
2022/08/26 23:29:34;;;;;;;13.70;10.30;;;;;;;18.17;68.31;98203.42;430817;1276;107845;-40
2022/08/26 23:39:41;;;;;;;15.30;9.20;;;;;;;18.18;68.08;98201.74;430789;1276;97912;-41
2022/08/26 23:49:48;;;;;;;20.30;10.50;;;;;;;18.05;68.08;98201.57;430610;1276;97926;-40
2022/08/26 23:59:56;;;;;;;12.20;9.70;;;;;;;17.98;68.24;98191.49;430820;1273;111187;-40
